createdAt,value
2023-01-08T00:00:53.189Z,987.30
2023-01-08T00:01:53.140Z,987.26
2023-01-08T00:02:53.241Z,987.23
2023-01-08T00:03:53.232Z,987.26
2023-01-08T00:04:53.095Z,987.23
2023-01-08T00:05:53.070Z,987.17
2023-01-08T00:06:53.062Z,987.17
2023-01-08T00:07:53.037Z,987.19
2023-01-08T00:08:53.116Z,987.21
2023-01-08T00:09:53.001Z,987.22
2023-01-08T00:11:01.705Z,987.22
2023-01-08T00:12:57.679Z,987.23
2023-01-08T00:13:57.678Z,987.24
2023-01-08T00:16:07.176Z,987.25
2023-01-08T00:17:06.630Z,987.24
2023-01-08T00:19:13.579Z,987.21
2023-01-08T00:21:29.475Z,987.15
2023-01-08T00:22:31.008Z,987.10
2023-01-08T00:24:36.501Z,987.07
2023-01-08T00:25:36.465Z,987.07
2023-01-08T00:26:36.401Z,986.98
2023-01-08T00:27:36.383Z,987.09
2023-01-08T00:28:36.365Z,987.04
2023-01-08T00:29:36.361Z,987.03
2023-01-08T00:30:37.987Z,987.06
2023-01-08T00:31:36.317Z,987.05
2023-01-08T00:32:36.390Z,987.03
2023-01-08T00:33:36.282Z,987.04
2023-01-08T00:34:36.268Z,987.06
2023-01-08T00:35:36.245Z,986.95
2023-01-08T00:36:36.232Z,986.98
2023-01-08T00:37:36.213Z,986.92
2023-01-08T00:38:36.219Z,986.94
2023-01-08T00:39:36.175Z,986.91
2023-01-08T00:40:36.248Z,986.88
2023-01-08T00:41:36.166Z,986.92
2023-01-08T00:42:36.120Z,986.86
2023-01-08T00:43:36.113Z,986.82
2023-01-08T00:44:36.085Z,986.84
2023-01-08T00:45:36.146Z,986.75
2023-01-08T00:46:36.067Z,986.70
2023-01-08T00:47:36.041Z,986.68
2023-01-08T00:48:36.057Z,986.68
2023-01-08T00:49:36.045Z,986.60
2023-01-08T00:50:36.003Z,986.65
2023-01-08T00:51:36.008Z,986.65
2023-01-08T00:52:35.994Z,986.64
2023-01-08T00:53:35.994Z,986.54
2023-01-08T00:54:35.943Z,986.56
2023-01-08T00:55:35.958Z,986.53
2023-01-08T00:56:36.027Z,986.57
2023-01-08T00:57:35.874Z,986.48
2023-01-08T00:58:35.858Z,986.51
2023-01-08T00:59:35.861Z,986.50
2023-01-08T01:00:35.839Z,986.51
2023-01-08T01:01:36.028Z,986.56
2023-01-08T01:02:35.825Z,986.55
2023-01-08T01:03:35.820Z,986.51
2023-01-08T01:04:35.893Z,986.52
2023-01-08T01:05:35.763Z,986.51
2023-01-08T01:06:35.724Z,986.48
2023-01-08T01:07:35.706Z,986.45
2023-01-08T01:08:35.717Z,986.41
2023-01-08T01:09:35.721Z,986.41
2023-01-08T01:10:35.680Z,986.34
2023-01-08T01:11:35.747Z,986.26
2023-01-08T01:12:35.754Z,986.27
2023-01-08T01:13:35.693Z,986.29
2023-01-08T01:14:35.667Z,986.32
2023-01-08T01:15:35.683Z,986.28
2023-01-08T01:16:35.725Z,986.34
2023-01-08T01:17:35.625Z,986.33
2023-01-08T01:18:35.595Z,986.32
2023-01-08T01:19:35.523Z,986.38
2023-01-08T01:20:35.560Z,986.43
2023-01-08T01:21:35.541Z,986.34
2023-01-08T01:22:35.470Z,986.42
2023-01-08T01:23:35.518Z,986.38
2023-01-08T01:24:35.507Z,986.40
2023-01-08T01:25:35.599Z,986.43
2023-01-08T01:26:35.426Z,986.44
2023-01-08T01:27:35.447Z,986.54
2023-01-08T01:28:35.580Z,986.52
2023-01-08T01:29:35.407Z,986.57
2023-01-08T01:30:35.351Z,986.56
2023-01-08T01:31:35.537Z,986.55
2023-01-08T01:32:35.323Z,986.58
2023-01-08T01:33:35.377Z,986.57
2023-01-08T01:34:35.309Z,986.60
2023-01-08T01:35:35.278Z,986.55
2023-01-08T01:36:35.315Z,986.56
2023-01-08T01:37:35.238Z,986.53
2023-01-08T01:38:35.212Z,986.51
2023-01-08T01:39:35.227Z,986.48
2023-01-08T01:40:35.161Z,986.46
2023-01-08T01:41:35.184Z,986.44
2023-01-08T01:42:35.188Z,986.42
2023-01-08T01:43:35.250Z,986.44
2023-01-08T01:44:35.183Z,986.46
2023-01-08T01:45:35.211Z,986.47
2023-01-08T01:46:35.084Z,986.48
2023-01-08T01:47:35.089Z,986.46
2023-01-08T01:48:35.086Z,986.46
2023-01-08T01:49:35.050Z,986.51
2023-01-08T01:50:35.020Z,986.56
2023-01-08T01:51:35.032Z,986.58
2023-01-08T01:52:35.034Z,986.65
2023-01-08T01:53:35.014Z,986.69
2023-01-08T01:54:34.956Z,986.69
2023-01-08T01:55:34.984Z,986.63
2023-01-08T01:56:35.067Z,986.66
2023-01-08T01:57:35.031Z,986.61
2023-01-08T01:58:34.912Z,986.57
2023-01-08T01:59:34.955Z,986.57
2023-01-08T02:00:34.923Z,986.54
2023-01-08T02:01:34.932Z,986.55
2023-01-08T02:02:34.968Z,986.54
2023-01-08T02:03:34.782Z,986.52
2023-01-08T02:04:34.794Z,986.50
2023-01-08T02:05:34.775Z,986.50
2023-01-08T02:06:34.860Z,986.52
2023-01-08T02:07:34.761Z,986.50
2023-01-08T02:08:34.718Z,986.51
2023-01-08T02:09:34.690Z,986.54
2023-01-08T02:10:34.655Z,986.54
2023-01-08T02:11:34.663Z,986.50
2023-01-08T02:12:34.669Z,986.46
2023-01-08T02:13:34.706Z,986.45
2023-01-08T02:14:34.625Z,986.40
2023-01-08T02:15:34.632Z,986.43
2023-01-08T02:16:34.750Z,986.45
2023-01-08T02:17:34.535Z,986.41
2023-01-08T02:18:34.586Z,986.31
2023-01-08T02:19:34.571Z,986.38
2023-01-08T02:20:34.510Z,986.38
2023-01-08T02:21:34.497Z,986.32
2023-01-08T02:22:34.469Z,986.36
2023-01-08T02:23:34.441Z,986.36
2023-01-08T02:24:34.475Z,986.32
2023-01-08T02:25:34.445Z,986.30
2023-01-08T02:26:34.446Z,986.27
2023-01-08T02:27:34.395Z,986.33
2023-01-08T02:28:34.409Z,986.29
2023-01-08T02:29:34.417Z,986.28
2023-01-08T02:30:34.398Z,986.21
2023-01-08T02:31:34.353Z,986.20
2023-01-08T02:32:34.404Z,986.18
2023-01-08T02:33:34.315Z,986.13
2023-01-08T02:34:34.327Z,986.11
2023-01-08T02:35:34.268Z,986.11
2023-01-08T02:36:34.281Z,986.12
2023-01-08T02:37:34.322Z,986.10
2023-01-08T02:38:34.216Z,986.10
2023-01-08T02:39:34.200Z,986.06
2023-01-08T02:40:34.164Z,986.04
2023-01-08T02:41:34.163Z,986.12
2023-01-08T02:42:34.199Z,986.08
2023-01-08T02:43:34.109Z,986.12
2023-01-08T02:44:34.186Z,986.04
2023-01-08T02:45:34.124Z,986.07
2023-01-08T02:46:34.065Z,986.03
2023-01-08T02:47:34.070Z,986.02
2023-01-08T02:48:34.059Z,986.03
2023-01-08T02:49:34.036Z,986.01
2023-01-08T02:50:34.042Z,985.99
2023-01-08T02:51:34.058Z,986.02
2023-01-08T02:52:33.958Z,985.97
2023-01-08T02:53:33.985Z,985.99
2023-01-08T02:54:33.929Z,985.97
2023-01-08T02:55:33.940Z,985.93
2023-01-08T02:56:33.902Z,985.93
2023-01-08T02:57:33.936Z,985.89
2023-01-08T02:58:33.881Z,985.89
2023-01-08T02:59:33.880Z,985.97
2023-01-08T03:00:33.861Z,985.97
2023-01-08T03:01:33.978Z,985.95
2023-01-08T03:02:33.920Z,985.93
2023-01-08T03:03:33.843Z,985.93
2023-01-08T03:04:33.928Z,985.87
2023-01-08T03:05:33.745Z,985.94
2023-01-08T03:06:33.804Z,985.90
2023-01-08T03:07:33.734Z,985.96
2023-01-08T03:08:33.721Z,985.93
2023-01-08T03:09:33.711Z,985.95
2023-01-08T03:10:33.718Z,985.92
2023-01-08T03:11:33.700Z,985.88
2023-01-08T03:12:33.659Z,985.92
2023-01-08T03:13:33.642Z,985.89
2023-01-08T03:14:33.643Z,985.82
2023-01-08T03:15:33.606Z,985.81
2023-01-08T03:16:33.678Z,985.91
2023-01-08T03:17:33.549Z,985.86
2023-01-08T03:18:33.582Z,985.88
2023-01-08T03:19:33.504Z,985.86
2023-01-08T03:20:33.682Z,985.87
2023-01-08T03:21:33.554Z,985.88
2023-01-08T03:22:33.462Z,985.93
2023-01-08T03:23:33.437Z,985.81
2023-01-08T03:24:33.432Z,985.80
2023-01-08T03:25:33.422Z,985.79
2023-01-08T03:26:33.438Z,985.74
2023-01-08T03:27:33.407Z,985.74
2023-01-08T03:28:33.361Z,985.74
2023-01-08T03:29:33.352Z,985.72
2023-01-08T03:30:33.384Z,985.74
2023-01-08T03:31:33.346Z,985.64
2023-01-08T03:32:33.308Z,985.66
2023-01-08T03:33:33.337Z,985.67
2023-01-08T03:34:33.285Z,985.60
2023-01-08T03:35:33.364Z,985.64
2023-01-08T03:36:33.328Z,985.64
2023-01-08T03:37:33.231Z,985.61
2023-01-08T03:38:33.248Z,985.64
2023-01-08T03:39:33.319Z,985.62
2023-01-08T03:40:33.404Z,985.60
2023-01-08T03:41:33.262Z,985.58
2023-01-08T03:42:33.215Z,985.63
2023-01-08T03:43:33.174Z,985.54
2023-01-08T03:44:33.241Z,985.50
2023-01-08T03:45:33.106Z,985.47
2023-01-08T03:46:33.251Z,985.48
2023-01-08T03:47:33.105Z,985.43
2023-01-08T03:48:33.124Z,985.40
2023-01-08T03:49:33.041Z,985.31
2023-01-08T03:50:33.027Z,985.22
2023-01-08T03:51:33.064Z,985.08
2023-01-08T03:52:33.096Z,985.08
2023-01-08T03:53:32.941Z,985.21
2023-01-08T03:54:32.925Z,985.30
2023-01-08T03:55:33.044Z,985.27
2023-01-08T03:56:32.930Z,985.30
2023-01-08T03:57:32.913Z,985.28
2023-01-08T03:58:32.840Z,985.30
2023-01-08T03:59:32.830Z,985.24
2023-01-08T04:00:32.826Z,985.22
2023-01-08T04:01:32.994Z,985.19
2023-01-08T04:02:32.988Z,985.17
2023-01-08T04:03:32.840Z,985.16
2023-01-08T04:04:32.846Z,985.19
2023-01-08T04:05:32.734Z,985.19
2023-01-08T04:06:32.773Z,985.16
2023-01-08T04:07:32.690Z,985.11
2023-01-08T04:08:32.710Z,985.06
2023-01-08T04:09:32.720Z,985.09
2023-01-08T04:10:32.640Z,985.13
2023-01-08T04:11:32.628Z,985.10
2023-01-08T04:12:32.611Z,985.11
2023-01-08T04:13:32.590Z,985.10
2023-01-08T04:14:32.574Z,985.08
2023-01-08T04:15:32.635Z,985.07
2023-01-08T04:16:32.584Z,985.08
2023-01-08T04:17:32.541Z,985.06
2023-01-08T04:18:32.502Z,985.08
2023-01-08T04:19:32.509Z,985.06
2023-01-08T04:20:32.475Z,985.08
2023-01-08T04:21:32.475Z,985.10
2023-01-08T04:22:32.475Z,985.09
2023-01-08T04:23:32.473Z,985.08
2023-01-08T04:24:32.569Z,985.07
2023-01-08T04:25:32.388Z,985.09
2023-01-08T04:26:32.368Z,985.09
2023-01-08T04:27:32.392Z,985.06
2023-01-08T04:28:32.358Z,985.05
2023-01-08T04:29:32.313Z,985.09
2023-01-08T04:30:32.319Z,985.06
2023-01-08T04:31:32.299Z,985.03
2023-01-08T04:32:32.298Z,985.00
2023-01-08T04:33:32.260Z,984.99
2023-01-08T04:34:32.270Z,985.01
2023-01-08T04:35:32.221Z,985.04
2023-01-08T04:36:32.196Z,985.05
2023-01-08T04:37:32.197Z,985.03
2023-01-08T04:38:32.203Z,985.04
2023-01-08T04:39:32.165Z,985.06
2023-01-08T04:40:32.288Z,985.09
2023-01-08T04:41:32.136Z,985.09
2023-01-08T04:42:32.152Z,985.12
2023-01-08T04:43:32.995Z,985.09
2023-01-08T04:44:32.079Z,985.14
2023-01-08T04:45:32.083Z,985.18
2023-01-08T04:46:32.123Z,985.13
2023-01-08T04:47:32.068Z,985.12
2023-01-08T04:48:32.008Z,985.10
2023-01-08T04:49:32.013Z,985.07
2023-01-08T04:50:32.008Z,985.04
2023-01-08T04:51:31.956Z,985.08
2023-01-08T04:52:31.936Z,985.00
2023-01-08T04:53:32.007Z,985.01
2023-01-08T04:54:32.028Z,985.04
2023-01-08T04:55:31.940Z,985.02
2023-01-08T04:56:31.977Z,985.07
2023-01-08T04:57:31.887Z,985.05
2023-01-08T04:58:31.898Z,985.07
2023-01-08T04:59:31.847Z,985.02
2023-01-08T05:00:31.818Z,985.00
2023-01-08T05:01:31.942Z,985.00
2023-01-08T05:02:32.719Z,984.99
2023-01-08T05:03:32.068Z,984.96
2023-01-08T05:04:31.851Z,984.98
2023-01-08T05:05:31.757Z,984.98
2023-01-08T05:06:31.720Z,985.02
2023-01-08T05:07:31.729Z,984.98
2023-01-08T05:08:31.714Z,985.01
2023-01-08T05:09:31.735Z,985.00
2023-01-08T05:10:31.680Z,985.02
2023-01-08T05:11:31.652Z,985.02
2023-01-08T05:12:31.727Z,985.05
2023-01-08T05:13:31.588Z,985.02
2023-01-08T05:14:31.570Z,984.98
2023-01-08T05:15:31.715Z,984.98
2023-01-08T05:16:31.606Z,985.00
2023-01-08T05:17:31.497Z,985.00
2023-01-08T05:18:31.683Z,984.93
2023-01-08T05:19:32.503Z,984.89
2023-01-08T05:20:31.491Z,984.89
2023-01-08T05:21:31.910Z,984.95
2023-01-08T05:22:31.611Z,984.97
2023-01-08T05:23:31.655Z,984.95
2023-01-08T05:24:31.765Z,984.97
2023-01-08T05:25:31.727Z,985.03
2023-01-08T05:26:31.955Z,984.94
2023-01-08T05:27:31.751Z,984.93
2023-01-08T05:28:31.723Z,984.91
2023-01-08T05:29:31.655Z,984.96
2023-01-08T05:30:31.376Z,984.95
2023-01-08T05:31:31.595Z,984.98
2023-01-08T05:32:31.537Z,984.98
2023-01-08T05:33:31.469Z,985.00
2023-01-08T05:34:31.394Z,984.96
2023-01-08T05:35:31.383Z,985.00
2023-01-08T05:36:31.235Z,984.99
2023-01-08T05:37:31.191Z,984.99
2023-01-08T05:38:31.290Z,984.97
2023-01-08T05:39:31.471Z,985.00
2023-01-08T05:40:31.487Z,984.98
2023-01-08T05:41:31.116Z,985.01
2023-01-08T05:42:31.078Z,984.97
2023-01-08T05:43:31.062Z,985.02
2023-01-08T05:44:31.120Z,985.05
2023-01-08T05:45:31.025Z,984.98
2023-01-08T05:46:31.138Z,985.06
2023-01-08T05:47:31.152Z,984.98
2023-01-08T05:48:31.057Z,984.93
2023-01-08T05:49:31.067Z,984.93
2023-01-08T05:50:31.085Z,984.94
2023-01-08T05:51:31.189Z,984.99
2023-01-08T05:52:31.202Z,984.98
2023-01-08T05:53:31.251Z,984.98
2023-01-08T05:54:31.134Z,984.98
2023-01-08T05:55:31.252Z,984.92
2023-01-08T05:56:30.948Z,984.92
2023-01-08T05:57:30.919Z,984.92
2023-01-08T05:58:30.864Z,984.89
2023-01-08T05:59:31.071Z,984.89
2023-01-08T06:00:30.900Z,984.95
2023-01-08T06:01:30.792Z,984.93
2023-01-08T06:02:30.775Z,984.92
2023-01-08T06:03:30.833Z,984.90
2023-01-08T06:04:30.760Z,984.90
2023-01-08T06:05:30.723Z,984.89
2023-01-08T06:06:30.648Z,984.88
2023-01-08T06:07:30.646Z,984.85
2023-01-08T06:08:30.612Z,984.92
2023-01-08T06:09:30.605Z,984.93
2023-01-08T06:10:30.573Z,984.88
2023-01-08T06:11:30.641Z,984.91
2023-01-08T06:12:30.554Z,984.98
2023-01-08T06:13:30.576Z,984.90
2023-01-08T06:14:30.537Z,984.95
2023-01-08T06:15:30.516Z,984.94
2023-01-08T06:16:30.479Z,984.94
2023-01-08T06:17:30.469Z,984.91
2023-01-08T06:18:30.456Z,984.94
2023-01-08T06:19:30.421Z,985.01
2023-01-08T06:20:30.422Z,984.97
2023-01-08T06:21:30.373Z,985.01
2023-01-08T06:22:31.871Z,984.92
2023-01-08T06:23:30.351Z,984.97
2023-01-08T06:24:30.333Z,984.97
2023-01-08T06:25:30.311Z,984.97
2023-01-08T06:26:30.291Z,984.92
2023-01-08T06:27:30.287Z,984.91
2023-01-08T06:28:30.271Z,984.91
2023-01-08T06:29:30.232Z,984.90
2023-01-08T06:30:30.231Z,984.91
2023-01-08T06:31:30.296Z,984.89
2023-01-08T06:32:30.286Z,984.87
2023-01-08T06:33:30.197Z,984.83
2023-01-08T06:34:30.183Z,984.83
2023-01-08T06:35:30.153Z,984.80
2023-01-08T06:36:30.157Z,984.80
2023-01-08T06:37:30.113Z,984.77
2023-01-08T06:38:30.093Z,984.70
2023-01-08T06:39:30.091Z,984.70
2023-01-08T06:40:30.047Z,984.69
2023-01-08T06:41:30.044Z,984.74
2023-01-08T06:42:30.031Z,984.72
2023-01-08T06:43:30.007Z,984.71
2023-01-08T06:44:29.983Z,984.75
2023-01-08T06:45:29.960Z,984.76
2023-01-08T06:46:29.973Z,984.80
2023-01-08T06:47:29.911Z,984.78
2023-01-08T06:48:29.993Z,984.81
2023-01-08T06:49:29.919Z,984.85
2023-01-08T06:50:29.870Z,984.84
2023-01-08T06:51:29.858Z,984.87
2023-01-08T06:52:29.838Z,984.84
2023-01-08T06:53:29.808Z,984.88
2023-01-08T06:54:29.811Z,984.86
2023-01-08T06:55:29.773Z,984.82
2023-01-08T06:56:29.773Z,984.83
2023-01-08T06:57:29.741Z,984.87
2023-01-08T06:58:29.738Z,984.77
2023-01-08T06:59:29.735Z,984.87
2023-01-08T07:00:29.685Z,984.88
2023-01-08T07:01:29.791Z,984.88
2023-01-08T07:02:29.913Z,984.85
2023-01-08T07:03:29.717Z,984.83
2023-01-08T07:04:29.727Z,984.82
2023-01-08T07:05:29.800Z,984.80
2023-01-08T07:06:29.579Z,984.85
2023-01-08T07:07:29.660Z,984.86
2023-01-08T07:08:29.568Z,984.85
2023-01-08T07:09:29.575Z,984.87
2023-01-08T07:10:29.535Z,984.86
2023-01-08T07:11:29.560Z,984.88
2023-01-08T07:12:29.488Z,984.92
2023-01-08T07:13:29.476Z,984.86
2023-01-08T07:14:29.485Z,984.91
2023-01-08T07:15:29.426Z,984.98
2023-01-08T07:16:29.510Z,984.92
2023-01-08T07:17:29.496Z,985.00
2023-01-08T07:18:29.408Z,984.95
2023-01-08T07:19:29.358Z,984.98
2023-01-08T07:20:29.517Z,984.98
2023-01-08T07:21:29.354Z,984.95
2023-01-08T07:22:29.315Z,984.96
2023-01-08T07:23:29.324Z,984.96
2023-01-08T07:24:29.287Z,984.95
2023-01-08T07:25:29.264Z,984.98
2023-01-08T07:26:29.241Z,984.94
2023-01-08T07:27:29.225Z,984.93
2023-01-08T07:28:29.211Z,984.99
2023-01-08T07:29:29.182Z,985.00
2023-01-08T07:30:30.457Z,985.02
2023-01-08T07:31:29.187Z,985.04
2023-01-08T07:32:29.133Z,984.96
2023-01-08T07:33:29.177Z,985.00
2023-01-08T07:34:29.099Z,985.01
2023-01-08T07:35:29.095Z,985.00
2023-01-08T07:36:29.232Z,985.03
2023-01-08T07:37:29.052Z,985.02
2023-01-08T07:38:29.041Z,984.98
2023-01-08T07:39:29.053Z,984.98
2023-01-08T07:40:29.064Z,985.02
2023-01-08T07:41:28.973Z,985.03
2023-01-08T07:42:28.964Z,985.06
2023-01-08T07:43:28.942Z,985.07
2023-01-08T07:44:28.917Z,985.07
2023-01-08T07:45:28.913Z,985.06
2023-01-08T07:46:28.981Z,985.02
2023-01-08T07:47:28.863Z,985.06
2023-01-08T07:48:28.850Z,985.03
2023-01-08T07:49:28.845Z,985.05
2023-01-08T07:50:28.873Z,984.98
2023-01-08T07:51:28.793Z,984.93
2023-01-08T07:52:28.883Z,985.00
2023-01-08T07:53:28.778Z,985.06
2023-01-08T07:54:28.754Z,985.01
2023-01-08T07:55:28.732Z,985.04
2023-01-08T07:56:28.705Z,985.03
2023-01-08T07:57:28.691Z,985.00
2023-01-08T07:58:28.674Z,984.99
2023-01-08T07:59:28.649Z,984.95
2023-01-08T08:00:28.679Z,985.00
2023-01-08T08:01:28.717Z,984.97
2023-01-08T08:02:28.806Z,985.01
2023-01-08T08:03:28.691Z,985.00
2023-01-08T08:04:28.570Z,984.99
2023-01-08T08:05:28.545Z,984.99
2023-01-08T08:06:28.535Z,984.96
2023-01-08T08:07:28.517Z,985.07
2023-01-08T08:08:28.591Z,984.94
2023-01-08T08:09:28.481Z,984.92
2023-01-08T08:10:28.503Z,984.97
2023-01-08T08:11:28.452Z,985.05
2023-01-08T08:12:28.427Z,985.04
2023-01-08T08:13:28.459Z,985.04
2023-01-08T08:14:28.398Z,984.99
2023-01-08T08:15:28.373Z,984.98
2023-01-08T08:16:28.424Z,985.00
2023-01-08T08:17:28.340Z,985.02
2023-01-08T08:18:28.319Z,984.97
2023-01-08T08:19:28.305Z,985.00
2023-01-08T08:20:28.288Z,985.08
2023-01-08T08:21:28.266Z,984.90
2023-01-08T08:22:28.247Z,984.97
2023-01-08T08:23:28.237Z,984.92
2023-01-08T08:24:28.353Z,984.97
2023-01-08T08:25:28.193Z,984.90
2023-01-08T08:26:28.191Z,984.91
2023-01-08T08:27:28.161Z,984.87
2023-01-08T08:28:28.187Z,984.89
2023-01-08T08:29:28.135Z,984.90
2023-01-08T08:30:28.158Z,984.92
2023-01-08T08:31:28.192Z,984.89
2023-01-08T08:32:28.074Z,984.87
2023-01-08T08:33:28.070Z,984.86
2023-01-08T08:34:28.038Z,984.90
2023-01-08T08:35:28.032Z,984.89
2023-01-08T08:36:28.056Z,984.80
2023-01-08T08:37:27.995Z,984.86
2023-01-08T08:38:27.970Z,984.87
2023-01-08T08:39:27.967Z,984.86
2023-01-08T08:40:28.038Z,984.91
2023-01-08T08:41:27.942Z,984.87
2023-01-08T08:42:27.897Z,984.88
2023-01-08T08:43:27.892Z,984.91
2023-01-08T08:44:27.867Z,984.88
2023-01-08T08:45:27.854Z,984.93
2023-01-08T08:46:27.874Z,984.90
2023-01-08T08:47:27.813Z,984.89
2023-01-08T08:48:27.805Z,984.86
2023-01-08T08:49:27.776Z,984.85
2023-01-08T08:50:27.763Z,984.84
2023-01-08T08:51:27.747Z,984.82
2023-01-08T08:52:27.732Z,984.84
2023-01-08T08:53:27.898Z,984.86
2023-01-08T08:54:27.689Z,984.80
2023-01-08T08:55:27.672Z,984.78
2023-01-08T08:56:27.767Z,984.83
2023-01-08T08:57:27.634Z,984.84
2023-01-08T08:58:27.621Z,984.82
2023-01-08T08:59:27.602Z,984.82
2023-01-08T09:00:27.598Z,984.86
2023-01-08T09:01:27.642Z,984.90
2023-01-08T09:02:27.827Z,984.90
2023-01-08T09:03:27.637Z,984.83
2023-01-08T09:04:27.586Z,984.83
2023-01-08T09:05:27.577Z,984.86
2023-01-08T09:06:28.009Z,984.90
2023-01-08T09:07:27.467Z,984.89
2023-01-08T09:08:27.480Z,984.85
2023-01-08T09:09:27.429Z,984.87
2023-01-08T09:10:27.408Z,984.86
2023-01-08T09:11:27.407Z,984.87
2023-01-08T09:12:27.386Z,984.87
2023-01-08T09:13:27.359Z,984.86
2023-01-08T09:14:27.346Z,984.87
2023-01-08T09:15:27.324Z,984.84
2023-01-08T09:16:27.363Z,984.87
2023-01-08T09:17:27.331Z,984.89
2023-01-08T09:18:27.284Z,984.84
2023-01-08T09:19:27.261Z,984.89
2023-01-08T09:20:27.312Z,984.85
2023-01-08T09:21:27.221Z,984.88
2023-01-08T09:22:27.201Z,984.89
2023-01-08T09:23:27.186Z,984.85
2023-01-08T09:24:27.163Z,984.85
2023-01-08T09:25:27.151Z,984.84
2023-01-08T09:26:27.176Z,984.88
2023-01-08T09:27:27.109Z,984.83
2023-01-08T09:28:27.190Z,984.85
2023-01-08T09:29:27.089Z,984.85
2023-01-08T09:30:27.073Z,984.84
2023-01-08T09:31:27.105Z,984.85
2023-01-08T09:32:27.037Z,984.85
2023-01-08T09:33:27.015Z,984.83
2023-01-08T09:34:27.073Z,984.85
2023-01-08T09:35:26.982Z,984.85
2023-01-08T09:36:26.955Z,984.85
2023-01-08T09:37:26.945Z,984.86
2023-01-08T09:38:29.645Z,984.87
2023-01-08T09:39:26.907Z,984.87
2023-01-08T09:40:26.895Z,984.89
2023-01-08T09:41:26.872Z,984.89
2023-01-08T09:42:26.862Z,984.91
2023-01-08T09:43:26.836Z,984.93
2023-01-08T09:44:26.820Z,984.94
2023-01-08T09:45:28.913Z,984.90
2023-01-08T09:46:26.830Z,984.97
2023-01-08T09:47:26.768Z,984.91
2023-01-08T09:48:26.751Z,984.91
2023-01-08T09:49:26.727Z,984.89
2023-01-08T09:50:26.757Z,984.92
2023-01-08T09:51:26.696Z,984.93
2023-01-08T09:52:26.686Z,984.92
2023-01-08T09:53:26.660Z,984.88
2023-01-08T09:54:26.655Z,984.90
2023-01-08T09:55:26.686Z,984.89
2023-01-08T09:56:26.608Z,984.94
2023-01-08T09:57:26.640Z,984.89
2023-01-08T09:58:26.586Z,984.81
2023-01-08T09:59:26.586Z,984.81
2023-01-08T10:00:26.639Z,984.79
2023-01-08T10:01:26.697Z,984.80
2023-01-08T10:02:26.700Z,984.73
2023-01-08T10:03:26.519Z,984.73
2023-01-08T10:04:26.571Z,984.72
2023-01-08T10:05:26.475Z,984.71
2023-01-08T10:06:26.456Z,984.73
2023-01-08T10:07:26.442Z,984.69
2023-01-08T10:08:26.402Z,984.62
2023-01-08T10:09:26.389Z,984.64
2023-01-08T10:10:26.371Z,984.62
2023-01-08T10:11:26.375Z,984.62
2023-01-08T10:12:26.539Z,984.69
2023-01-08T10:13:26.315Z,984.73
2023-01-08T10:14:26.311Z,984.71
2023-01-08T10:15:26.293Z,984.71
2023-01-08T10:16:26.327Z,984.73
2023-01-08T10:17:26.260Z,984.74
2023-01-08T10:18:26.237Z,984.71
2023-01-08T10:19:26.217Z,984.71
2023-01-08T10:20:26.206Z,984.65
2023-01-08T10:21:26.179Z,984.66
2023-01-08T10:22:26.164Z,984.66
2023-01-08T10:23:26.165Z,984.58
2023-01-08T10:24:26.179Z,984.66
2023-01-08T10:25:26.162Z,984.67
2023-01-08T10:26:26.097Z,984.67
2023-01-08T10:27:26.099Z,984.69
2023-01-08T10:28:26.077Z,984.68
2023-01-08T10:29:26.071Z,984.63
2023-01-08T10:30:26.024Z,984.64
2023-01-08T10:31:26.067Z,984.63
2023-01-08T10:32:26.107Z,984.66
2023-01-08T10:33:25.993Z,984.69
2023-01-08T10:34:25.957Z,984.68
2023-01-08T10:35:25.946Z,984.69
2023-01-08T10:36:25.934Z,984.63
2023-01-08T10:37:25.914Z,984.61
2023-01-08T10:38:25.943Z,984.64
2023-01-08T10:39:25.888Z,984.65
2023-01-08T10:40:25.857Z,984.61
2023-01-08T10:41:25.879Z,984.60
2023-01-08T10:42:25.824Z,984.56
2023-01-08T10:43:25.815Z,984.52
2023-01-08T10:44:25.794Z,984.56
2023-01-08T10:45:25.780Z,984.51
2023-01-08T10:46:25.792Z,984.51
2023-01-08T10:47:25.734Z,984.57
2023-01-08T10:48:25.818Z,984.51
2023-01-08T10:49:25.700Z,984.44
2023-01-08T10:50:25.707Z,984.44
2023-01-08T10:51:25.675Z,984.49
2023-01-08T10:52:25.656Z,984.51
2023-01-08T10:53:25.650Z,984.45
2023-01-08T10:54:25.623Z,984.51
2023-01-08T10:55:25.598Z,984.46
2023-01-08T10:56:25.594Z,984.46
2023-01-08T10:57:25.566Z,984.44
2023-01-08T10:58:25.555Z,984.46
2023-01-08T10:59:25.539Z,984.38
2023-01-08T11:00:25.528Z,984.34
2023-01-08T11:01:25.559Z,984.34
2023-01-08T11:02:25.531Z,984.27
2023-01-08T11:03:25.459Z,984.32
2023-01-08T11:04:25.545Z,984.29
2023-01-08T11:05:25.476Z,984.31
2023-01-08T11:06:25.416Z,984.29
2023-01-08T11:07:25.401Z,984.37
2023-01-08T11:08:25.457Z,984.29
2023-01-08T11:09:25.444Z,984.25
2023-01-08T11:10:25.360Z,984.23
2023-01-08T11:11:25.327Z,984.21
2023-01-08T11:12:25.313Z,984.21
2023-01-08T11:13:25.311Z,984.19
2023-01-08T11:14:25.282Z,984.21
2023-01-08T11:15:25.275Z,984.18
2023-01-08T11:16:25.277Z,984.17
2023-01-08T11:17:25.229Z,984.07
2023-01-08T11:18:25.220Z,984.06
2023-01-08T11:19:25.197Z,984.01
2023-01-08T11:20:25.198Z,984.00
2023-01-08T11:21:25.209Z,984.07
2023-01-08T11:22:25.154Z,984.07
2023-01-08T11:23:25.132Z,983.98
2023-01-08T11:24:25.158Z,983.92
2023-01-08T11:25:25.109Z,983.96
2023-01-08T11:26:25.117Z,983.93
2023-01-08T11:27:25.103Z,983.96
2023-01-08T11:28:25.101Z,983.93
2023-01-08T11:29:25.044Z,983.95
2023-01-08T11:30:25.018Z,983.88
2023-01-08T11:31:25.029Z,983.89
2023-01-08T11:32:24.990Z,983.94
2023-01-08T11:33:24.971Z,983.98
2023-01-08T11:34:24.956Z,983.95
2023-01-08T11:35:24.927Z,983.91
2023-01-08T11:36:25.022Z,983.89
2023-01-08T11:37:24.906Z,983.91
2023-01-08T11:38:24.889Z,983.81
2023-01-08T11:39:24.867Z,983.83
2023-01-08T11:40:24.871Z,983.80
2023-01-08T11:41:25.715Z,983.73
2023-01-08T11:42:24.847Z,983.71
2023-01-08T11:43:24.809Z,983.70
2023-01-08T11:44:24.810Z,983.67
2023-01-08T11:45:24.820Z,983.68
2023-01-08T11:46:24.764Z,983.66
2023-01-08T11:47:24.751Z,983.66
2023-01-08T11:48:24.738Z,983.67
2023-01-08T11:49:24.723Z,983.67
2023-01-08T11:50:24.707Z,983.66
2023-01-08T11:51:24.691Z,983.61
2023-01-08T11:52:24.680Z,983.59
2023-01-08T11:53:24.666Z,983.46
2023-01-08T11:54:24.679Z,983.41
2023-01-08T11:55:24.637Z,983.40
2023-01-08T11:56:24.632Z,983.34
2023-01-08T11:57:24.613Z,983.27
2023-01-08T11:58:24.609Z,983.29
2023-01-08T11:59:24.587Z,983.31
2023-01-08T12:00:24.581Z,983.19
2023-01-08T12:01:24.588Z,983.21
2023-01-08T12:02:24.572Z,983.18
2023-01-08T12:03:24.611Z,983.01
2023-01-08T12:04:24.525Z,983.01
2023-01-08T12:05:24.523Z,982.96
2023-01-08T12:06:24.507Z,982.88
2023-01-08T12:07:24.488Z,982.83
2023-01-08T12:08:24.540Z,982.89
2023-01-08T12:09:24.456Z,982.88
2023-01-08T12:10:24.476Z,982.98
2023-01-08T12:11:24.433Z,982.98
2023-01-08T12:12:24.418Z,982.91
2023-01-08T12:13:24.407Z,982.93
2023-01-08T12:14:24.425Z,982.86
2023-01-08T12:15:24.390Z,982.84
2023-01-08T12:16:24.444Z,982.85
2023-01-08T12:17:25.008Z,982.90
2023-01-08T12:18:24.366Z,982.88
2023-01-08T12:19:24.330Z,982.93
2023-01-08T12:20:24.311Z,982.91
2023-01-08T12:21:24.296Z,982.94
2023-01-08T12:22:24.292Z,982.96
2023-01-08T12:23:24.273Z,982.98
2023-01-08T12:26:08.606Z,982.87
2023-01-08T12:27:08.590Z,982.88
2023-01-08T12:29:12.533Z,982.83
2023-01-08T12:30:12.496Z,982.86
2023-01-08T12:32:08.448Z,982.95
2023-01-08T12:33:08.367Z,982.86
2023-01-08T12:34:08.393Z,982.86
2023-01-08T12:35:08.408Z,982.82
2023-01-08T12:36:08.317Z,982.81
2023-01-08T12:37:08.333Z,982.82
2023-01-08T12:38:08.327Z,982.81